Time;durP1;ratioP1;P1;durP2;ratioP2;P2;SDS_P1;SDS_P2;PMS_P1;PMS_P2;Temp;Humidity;BMP_temperature;BMP_pressure;BME280_temperature;BME280_humidity;BME280_pressure;Samples;Min_cycle;Max_cycle;Signal;HPM_P1;HPM_P2
2022/08/12 00:44:50;;;;;;;3.92;2.60;;;;;;;16.09;94.06;100233.31;5052968;28;20533;-76
2022/08/12 00:47:18;;;;;;;8.57;2.80;;;;;;;16.05;94.47;100230.97;5052901;28;20041;-75
2022/08/12 00:49:45;;;;;;;4.15;2.47;;;;;;;16.08;94.70;100238.69;5052859;28;20052;-76
2022/08/12 00:52:12;;;;;;;4.20;2.55;;;;;;;16.07;94.97;100229.94;5052443;28;20083;-76
2022/08/12 00:54:47;;;;;;;3.47;2.67;;;;;;;16.09;95.04;100229.84;5052882;28;20029;-75
2022/08/12 00:57:18;;;;;;;3.58;2.30;;;;;;;16.02;95.29;100218.88;5052782;28;20127;-75
2022/08/12 00:59:50;;;;;;;2.95;2.42;;;;;;;16.02;95.64;100229.38;5052557;28;20450;-75
2022/08/12 01:02:27;;;;;;;2.80;2.50;;;;;;;15.94;95.97;100218.50;5052515;28;20067;-75
2022/08/12 01:13:15;;;;;;;3.25;2.28;;;;;;;15.95;97.37;100228.91;5052549;28;20036;-77
2022/08/12 01:15:44;;;;;;;2.50;2.30;;;;;;;15.95;97.73;100234.16;5052339;28;20102;-77
2022/08/12 01:18:12;;;;;;;5.07;2.70;;;;;;;15.87;97.93;100220.63;5052089;28;20051;-77
2022/08/12 01:20:51;;;;;;;3.65;2.60;;;;;;;15.89;98.04;100220.56;5052248;28;20029;-77
2022/08/12 01:23:19;;;;;;;3.00;2.65;;;;;;;16.01;97.98;100235.56;5052059;28;20079;-77
2022/08/12 01:25:48;;;;;;;2.90;2.40;;;;;;;15.97;98.10;100231.44;5052283;28;20116;-77
2022/08/12 01:28:16;;;;;;;4.97;2.83;;;;;;;16.05;98.24;100234.44;5051937;28;20032;-77
2022/08/12 01:30:43;;;;;;;2.63;2.42;;;;;;;16.12;98.11;100237.56;5051970;28;20433;-77
2022/08/12 01:33:20;;;;;;;3.78;2.67;;;;;;;16.15;97.61;100227.72;5051912;28;20096;-77
2022/08/12 01:35:53;;;;;;;2.80;2.42;;;;;;;16.31;96.47;100235.53;5051914;28;20117;-77
2022/08/12 01:38:21;;;;;;;6.32;3.08;;;;;;;16.34;95.23;100218.69;5052129;28;20031;-76
2022/08/12 01:40:47;;;;;;;3.83;2.97;;;;;;;16.52;93.97;100235.13;5052042;28;20384;-77
2022/08/12 01:43:20;;;;;;;5.60;3.13;;;;;;;16.59;93.23;100236.44;5051772;28;20021;-77
2022/08/12 01:45:58;;;;;;;2.88;2.63;;;;;;;16.62;92.05;100228.34;5051906;28;20044;-77
2022/08/12 01:48:55;;;;;;;6.13;3.35;;;;;;;16.69;92.53;100234.94;5051778;28;20029;-77
2022/08/12 01:51:25;;;;;;;3.75;2.67;;;;;;;16.63;92.42;100230.88;4969844;28;20542;-77
2022/08/12 01:54:06;;;;;;;3.65;2.50;;;;;;;16.62;92.36;100225.72;4970642;28;20066;-77
2022/08/12 01:56:40;;;;;;;;;;;;;;;16.69;92.46;100234.94;4971208;28;20166;-77
2022/08/12 02:01:55;;;;;;;4.50;2.70;;;;;;;16.70;90.49;100228.72;4970500;28;20418;-75
2022/08/12 02:14:12;;;;;;;4.10;2.90;;;;;;;16.88;89.80;100237.28;4970885;28;20069;-77
2022/08/12 02:16:40;;;;;;;4.47;2.80;;;;;;;16.91;90.05;100237.91;4970892;28;20565;-77
2022/08/12 02:19:40;;;;;;;5.07;2.75;;;;;;;16.93;90.00;100222.88;4970429;28;20143;-77
2022/08/12 02:22:40;;;;;;;2.92;2.63;;;;;;;16.98;89.95;100227.00;4970184;28;20047;-77
2022/08/12 02:25:10;;;;;;;2.95;2.53;;;;;;;16.96;89.01;100224.47;4950912;29;20479;-77
2022/08/12 02:27:55;;;;;;;3.10;2.50;;;;;;;17.04;88.92;100232.72;4971096;28;20462;-77
2022/08/12 02:30:27;;;;;;;5.53;2.63;;;;;;;17.05;88.53;100231.78;5029246;28;20124;-77
2022/08/12 02:32:53;;;;;;;3.50;2.60;;;;;;;16.97;88.30;100223.53;5029131;28;20030;-77
2022/08/12 02:35:21;;;;;;;4.03;2.75;;;;;;;17.03;88.42;100231.03;5028982;28;20037;-77
2022/08/12 02:37:51;;;;;;;3.38;2.63;;;;;;;17.04;88.32;100234.50;5029110;28;20044;-77
2022/08/12 02:40:18;;;;;;;3.83;2.60;;;;;;;16.99;88.23;100226.91;5012203;28;20468;-76
2022/08/12 02:43:13;;;;;;;3.38;2.60;;;;;;;17.08;87.69;100236.00;5028932;28;20065;-77
2022/08/12 02:45:49;;;;;;;3.25;2.45;;;;;;;17.07;87.38;100236.97;5028964;28;20022;-77
2022/08/12 02:48:23;;;;;;;3.35;2.60;;;;;;;17.01;87.14;100225.00;5028743;28;20053;-77
2022/08/12 02:50:51;;;;;;;3.63;2.67;;;;;;;17.07;86.95;100234.31;5028889;28;20061;-77
2022/08/12 02:53:17;;;;;;;7.57;2.65;;;;;;;17.03;86.99;100215.25;5018486;28;20026;-77
2022/08/12 02:55:46;;;;;;;3.70;2.55;;;;;;;17.02;87.12;100202.16;5009090;28;20029;-77
2022/08/12 02:58:13;;;;;;;3.22;2.47;;;;;;;17.14;86.98;100218.00;5008979;28;20034;-77
2022/08/12 03:00:39;;;;;;;8.35;2.75;;;;;;;17.13;86.72;100211.06;5029959;28;20461;-77
2022/08/12 03:03:08;;;;;;;6.63;3.00;;;;;;;17.13;86.96;100211.06;5052548;28;20118;-77
2022/08/12 03:05:36;;;;;;;2.78;2.50;;;;;;;17.19;86.78;100215.06;5054357;28;20044;-77
2022/08/12 03:08:03;;;;;;;4.95;3.22;;;;;;;17.17;86.88;100209.94;5054934;28;20372;-77
2022/08/12 03:10:34;;;;;;;5.65;3.05;;;;;;;17.09;86.99;100185.88;5054576;28;20029;-77
2022/08/12 03:13:02;;;;;;;4.20;2.90;;;;;;;17.23;87.48;100215.72;5054270;28;20029;-77
2022/08/12 03:15:29;;;;;;;4.25;2.80;;;;;;;17.20;87.92;100207.09;5054464;28;20064;-77
2022/08/12 03:18:00;;;;;;;3.85;2.67;;;;;;;17.18;88.21;100205.50;5054474;28;20021;-77
2022/08/12 03:20:26;;;;;;;3.53;2.53;;;;;;;17.21;88.48;100211.41;5054809;28;20025;-77
2022/08/12 03:22:51;;;;;;;4.70;2.55;;;;;;;17.22;88.71;100193.81;5054481;28;20361;-77
2022/08/12 03:25:26;;;;;;;3.20;2.90;;;;;;;17.23;88.83;100192.03;5054322;28;20029;-77
2022/08/12 03:27:56;;;;;;;5.30;2.45;;;;;;;17.31;88.56;100206.38;5054327;28;20032;-77
2022/08/12 03:30:27;;;;;;;5.70;2.65;;;;;;;17.30;88.27;100202.06;5054063;28;20029;-77
2022/08/12 03:32:55;;;;;;;4.50;2.90;;;;;;;17.24;87.78;100188.47;5054145;28;20056;-77
2022/08/12 03:35:26;;;;;;;4.40;2.85;;;;;;;17.24;87.94;100191.13;5054023;28;20025;-77
2022/08/12 03:37:59;;;;;;;5.65;3.00;;;;;;;17.24;87.95;100205.13;5054208;28;20472;-77
2022/08/12 04:02:33;;;;;;;5.70;2.90;;;;;;;17.13;88.15;100212.84;5053783;28;20040;-77
2022/08/12 04:05:00;;;;;;;7.75;3.88;;;;;;;17.13;88.54;100220.75;5053507;28;20057;-77
2022/08/12 04:07:26;;;;;;;5.38;3.20;;;;;;;17.07;88.93;100224.63;5053659;28;20056;-77
2022/08/12 04:09:53;;;;;;;6.15;3.30;;;;;;;17.10;88.88;100245.47;5053526;28;20060;-77
2022/08/12 04:15:02;;;;;;;4.85;3.72;;;;;;;16.94;89.59;100243.00;5052249;28;20048;-77
2022/08/12 04:17:29;;;;;;;6.10;3.80;;;;;;;16.87;90.17;100239.06;5053750;28;20056;-77
2022/08/12 04:19:56;;;;;;;4.90;3.83;;;;;;;16.84;90.27;100231.34;5053365;28;20033;-77
2022/08/12 04:22:24;;;;;;;4.93;3.92;;;;;;;16.87;90.24;100248.75;5053004;28;20033;-76
2022/08/12 04:24:52;;;;;;;5.05;3.80;;;;;;;16.84;90.42;100247.13;5053143;28;20033;-77
2022/08/12 04:27:18;;;;;;;6.90;4.57;;;;;;;16.86;90.86;100242.63;5053106;28;20096;-77
2022/08/12 04:29:43;;;;;;;5.63;4.03;;;;;;;16.92;90.62;100255.38;5053245;28;20128;-77
2022/08/12 04:32:09;;;;;;;5.68;4.30;;;;;;;16.91;90.79;100240.56;5053040;28;20384;-77
2022/08/12 04:34:36;;;;;;;5.88;4.32;;;;;;;17.23;90.16;100244.69;5053085;28;20028;-77
2022/08/12 04:37:02;;;;;;;6.25;4.30;;;;;;;17.79;88.44;100245.44;5052802;28;20112;-77
2022/08/12 04:39:27;;;;;;;4.32;3.90;;;;;;;18.49;85.17;100253.75;5053186;28;20115;-77
2022/08/12 04:41:53;;;;;;;5.95;4.10;;;;;;;18.77;82.52;100244.78;5053139;28;20025;-77
2022/08/12 04:44:18;;;;;;;6.80;4.35;;;;;;;19.18;81.03;100239.16;5052872;28;20581;-77
2022/08/12 04:46:44;;;;;;;5.90;3.97;;;;;;;19.72;78.51;100245.78;5052907;28;20053;-77
2022/08/12 04:49:11;;;;;;;6.13;4.20;;;;;;;19.89;76.93;100248.00;5052674;28;20021;-77
2022/08/12 04:51:36;;;;;;;4.82;3.45;;;;;;;19.87;76.55;100234.03;5052683;28;20033;-77
2022/08/12 04:54:03;;;;;;;4.03;3.58;;;;;;;19.82;76.47;100245.94;5052760;28;20032;-77
2022/08/12 04:56:29;;;;;;;4.68;3.25;;;;;;;19.55;76.83;100241.75;5052707;28;20040;-77
2022/08/12 04:58:56;;;;;;;3.58;3.22;;;;;;;19.47;77.33;100235.31;5052728;28;20116;-77
2022/08/12 05:01:28;;;;;;;5.38;3.30;;;;;;;19.45;76.86;100232.78;5052495;28;20074;-77
2022/08/12 05:03:55;;;;;;;6.15;3.30;;;;;;;19.63;76.83;100243.81;5052518;28;20062;-77
2022/08/12 05:06:20;;;;;;;5.00;3.03;;;;;;;19.78;76.05;100223.34;5052342;28;20071;-77
2022/08/12 05:08:47;;;;;;;4.25;2.80;;;;;;;20.44;74.22;100222.56;5052566;28;20025;-77
2022/08/12 05:11:12;;;;;;;5.10;3.38;;;;;;;20.95;72.19;100225.69;5052574;28;20037;-77
2022/08/12 05:13:39;;;;;;;4.63;3.10;;;;;;;21.37;70.80;100224.84;5052647;28;20043;-77
2022/08/12 05:16:06;;;;;;;3.42;3.13;;;;;;;21.67;67.43;100224.09;5052072;28;20082;-77
2022/08/12 05:18:34;;;;;;;4.72;3.22;;;;;;;22.00;66.71;100232.84;5052245;28;20033;-77
2022/08/12 05:20:59;;;;;;;3.63;2.80;;;;;;;22.62;64.83;100233.72;5052083;28;20107;-77
2022/08/12 05:23:25;;;;;;;3.47;2.83;;;;;;;22.69;63.06;100228.72;5051794;28;20563;-77
2022/08/12 05:25:55;;;;;;;3.40;3.03;;;;;;;22.37;64.38;100224.38;5051915;28;20405;-77
2022/08/12 05:28:21;;;;;;;3.08;2.78;;;;;;;23.22;62.31;100225.75;5052009;28;20401;-77
2022/08/12 05:30:47;;;;;;;5.43;3.22;;;;;;;23.69;59.98;100229.44;5051991;28;20060;-77
2022/08/12 05:33:14;;;;;;;3.72;2.88;;;;;;;23.51;60.21;100226.63;5051848;28;20057;-77
2022/08/12 05:35:42;;;;;;;3.50;2.75;;;;;;;23.84;59.76;100213.88;5052313;28;20143;-77
2022/08/12 05:40:58;;;;;;;4.57;2.72;;;;;;;24.49;58.61;100217.47;5052213;28;20102;-77
2022/08/12 05:43:23;;;;;;;4.35;2.65;;;;;;;25.91;54.98;100215.91;5051966;28;20102;-77
2022/08/12 05:45:49;;;;;;;4.28;2.50;;;;;;;27.30;50.59;100205.78;5051876;28;20468;-77
2022/08/12 05:48:15;;;;;;;3.28;2.88;;;;;;;27.78;48.64;100206.84;5051718;28;20025;-77
2022/08/12 05:50:42;;;;;;;3.22;2.75;;;;;;;27.19;49.52;100211.50;5052113;28;20075;-77
2022/08/12 05:53:07;;;;;;;5.60;2.95;;;;;;;26.36;51.26;100212.16;5051594;28;20024;-77
2022/08/12 05:55:33;;;;;;;7.95;2.85;;;;;;;26.25;52.23;100199.94;5051656;28;20025;-77
2022/08/12 05:58:01;;;;;;;4.18;2.58;;;;;;;26.21;51.78;100193.25;5051759;28;20065;-77
2022/08/12 06:00:30;;;;;;;4.55;2.55;;;;;;;26.71;51.13;100194.28;5033601;28;20033;-77
2022/08/12 06:02:59;;;;;;;3.40;2.72;;;;;;;28.55;47.96;100199.94;5051827;28;20021;-77
2022/08/12 06:05:28;;;;;;;2.40;2.20;;;;;;;29.85;44.16;100193.88;5051440;28;20040;-77
2022/08/12 06:07:55;;;;;;;5.82;2.42;;;;;;;29.11;44.66;100207.03;5051685;28;20043;-77
2022/08/12 06:10:21;;;;;;;4.40;2.63;;;;;;;28.62;46.58;100216.16;5051493;28;20103;-77
2022/08/12 06:12:48;;;;;;;3.45;2.10;;;;;;;28.40;46.64;100222.28;5051621;28;20059;-77
2022/08/12 06:15:16;;;;;;;3.83;2.05;;;;;;;27.70;47.71;100202.28;5051174;28;20096;-77
2022/08/12 06:17:42;;;;;;;2.80;2.50;;;;;;;27.34;48.45;100205.28;5051702;28;20035;-77
2022/08/12 06:20:14;;;;;;;2.50;2.30;;;;;;;27.41;49.21;100215.34;5051490;28;20033;-78
2022/08/12 06:22:42;;;;;;;5.22;2.67;;;;;;;27.63;48.44;100220.00;5048199;28;20082;-77
2022/08/12 06:25:08;;;;;;;4.38;2.45;;;;;;;27.48;47.90;100211.84;5031467;28;20037;-77
2022/08/12 06:27:47;;;;;;;3.10;2.33;;;;;;;27.61;47.96;100220.19;5031384;28;20033;-77
2022/08/12 06:30:15;;;;;;;4.63;2.60;;;;;;;27.07;48.06;100205.59;5031548;28;20029;-77
2022/08/12 06:32:42;;;;;;;2.97;2.22;;;;;;;27.46;48.92;100216.50;5031505;28;20033;-77
2022/08/12 06:35:09;;;;;;;4.30;2.50;;;;;;;27.75;47.92;100199.13;5031299;28;20021;-77
2022/08/12 06:37:47;;;;;;;3.05;2.55;;;;;;;27.99;47.14;100204.47;5032389;28;20037;-77
2022/08/12 06:40:13;;;;;;;5.90;2.90;;;;;;;29.25;46.16;100201.75;5034913;28;20068;-77
2022/08/12 06:42:48;;;;;;;3.80;2.40;;;;;;;30.77;42.74;100207.78;5035411;28;20465;-78
2022/08/12 06:45:14;;;;;;;3.13;2.15;;;;;;;31.13;41.67;100202.38;5035065;28;20029;-77
2022/08/12 06:47:40;;;;;;;2.35;2.13;;;;;;;30.98;41.51;100205.13;5035123;28;20056;-77
2022/08/12 06:50:07;;;;;;;6.32;2.58;;;;;;;30.25;41.50;100214.94;5035059;28;20025;-77
2022/08/12 06:52:32;;;;;;;2.40;2.20;;;;;;;28.91;44.65;100217.34;5038692;28;20025;-78
2022/08/12 06:54:58;;;;;;;2.42;2.22;;;;;;;30.30;43.39;100212.53;5054762;28;20028;-77
2022/08/12 06:57:28;;;;;;;4.55;2.78;;;;;;;31.94;39.65;100207.44;5054978;28;20029;-77
2022/08/12 06:59:53;;;;;;;;;;;;;;;34.22;37.64;100204.09;5055239;28;20460;-78
2022/08/12 07:02:21;;;;;;;2.88;2.33;;;;;;;37.17;32.59;100210.13;5054411;28;19919;-78
2022/08/12 07:04:47;;;;;;;2.67;2.40;;;;;;;38.81;29.97;100209.25;5054604;28;20047;-77
2022/08/12 07:07:12;;;;;;;5.38;2.40;;;;;;;39.48;28.69;100213.97;5054522;28;20032;-77
2022/08/12 07:09:38;;;;;;;3.28;2.20;;;;;;;40.45;28.08;100207.19;5054864;28;20033;-77
2022/08/12 07:12:04;;;;;;;2.95;2.20;;;;;;;41.29;25.52;100223.13;5054869;28;20021;-78
2022/08/12 07:14:30;;;;;;;2.75;2.40;;;;;;;38.40;28.40;100202.16;5054349;28;20533;-78
2022/08/12 07:17:00;;;;;;;3.28;2.13;;;;;;;38.93;29.46;100196.38;5054559;28;20478;-77
2022/08/12 07:19:26;;;;;;;3.15;2.17;;;;;;;42.44;26.10;100197.09;5036350;28;20396;-77
2022/08/12 07:21:52;;;;;;;3.72;2.50;;;;;;;43.34;24.16;100220.28;5054201;28;20017;-77
2022/08/12 07:24:17;;;;;;;2.67;1.92;;;;;;;43.79;23.91;100204.91;5054349;28;20028;-77
2022/08/12 07:26:43;;;;;;;2.17;1.92;;;;;;;44.08;23.70;100204.31;5054503;28;20028;-77
2022/08/12 07:29:09;;;;;;;2.55;2.00;;;;;;;45.03;22.91;100195.84;5054530;28;20036;-77
2022/08/12 07:31:38;;;;;;;2.53;2.00;;;;;;;46.91;21.71;100200.34;5054079;28;20372;-78
2022/08/12 07:34:04;;;;;;;2.45;2.10;;;;;;;47.67;21.28;100186.41;5054153;28;20028;-78
2022/08/12 07:36:32;;;;;;;2.97;1.80;;;;;;;48.61;20.47;100183.06;5053624;28;20033;-78
2022/08/12 07:38:58;;;;;;;2.40;1.57;;;;;;;49.16;20.07;100182.03;5054136;28;20036;-78
2022/08/12 07:41:27;;;;;;;3.97;1.70;;;;;;;49.20;19.58;100183.84;5053897;28;20033;-78
2022/08/12 07:44:01;;;;;;;1.70;1.60;;;;;;;49.29;19.28;100191.38;5054012;28;20025;-78
2022/08/12 07:46:47;;;;;;;9.30;2.92;;;;;;;50.06;18.73;100193.69;5053786;28;20044;-78
2022/08/12 07:49:14;;;;;;;2.72;1.73;;;;;;;50.77;18.43;100192.66;4972743;28;20031;-78
2022/08/12 07:51:42;;;;;;;1.90;1.80;;;;;;;50.77;18.34;100176.84;4963326;28;20071;-78
2022/08/12 07:54:08;;;;;;;2.35;1.70;;;;;;;50.51;18.89;100190.69;4963008;28;20035;-78
2022/08/12 07:56:37;;;;;;;2.65;1.88;;;;;;;48.05;19.85;100186.22;4962070;28;20035;-76
2022/08/12 07:59:03;;;;;;;2.67;1.67;;;;;;;47.98;20.31;100179.13;4971204;28;20022;-77
2022/08/12 08:01:29;;;;;;;2.60;1.77;;;;;;;48.45;19.87;100179.81;4971251;28;20034;-77
2022/08/12 08:06:41;;;;;;;2.00;1.55;;;;;;;46.58;21.19;100182.13;4971196;28;20124;-77
2022/08/12 08:09:08;;;;;;;2.42;1.70;;;;;;;47.66;20.18;100184.72;4972322;28;20035;-77
2022/08/12 08:14:18;;;;;;;2.70;1.75;;;;;;;47.22;20.45;100177.78;4972260;28;20045;-77
2022/08/12 08:16:45;;;;;;;2.65;1.63;;;;;;;48.11;20.02;100187.75;4972142;28;20042;-77
2022/08/12 08:19:22;;;;;;;5.55;2.00;;;;;;;43.95;22.65;100181.00;4971952;28;20035;-77
2022/08/12 08:21:53;;;;;;;3.40;1.90;;;;;;;42.82;23.96;100182.97;4971833;28;20030;-77
2022/08/12 08:24:20;;;;;;;4.15;2.30;;;;;;;42.45;24.09;100174.91;4971135;28;20085;-77
2022/08/12 08:26:50;;;;;;;2.20;2.05;;;;;;;43.10;23.88;100178.06;5027306;28;20048;-77
2022/08/12 08:29:18;;;;;;;1.83;1.70;;;;;;;45.21;22.07;100191.56;5052942;28;20150;-77
2022/08/12 08:31:49;;;;;;;4.75;1.90;;;;;;;42.10;23.98;100176.41;5053190;28;20036;-77
2022/08/12 08:34:16;;;;;;;3.40;2.08;;;;;;;37.43;28.39;100165.44;5052821;28;20103;-77
2022/08/12 08:36:42;;;;;;;1.65;1.48;;;;;;;33.57;33.11;100171.53;5053012;28;20083;-77
2022/08/12 08:39:09;;;;;;;3.53;2.10;;;;;;;31.11;38.14;100171.31;5052783;28;20029;-76
2022/08/12 08:44:19;;;;;;;2.08;1.85;;;;;;;28.97;42.28;100163.03;5052869;28;20741;-75
2022/08/12 08:46:46;;;;;;;2.08;1.98;;;;;;;28.89;42.78;100165.75;5052846;28;20343;-75
2022/08/12 08:49:14;;;;;;;2.80;1.98;;;;;;;28.61;43.38;100163.56;5052647;28;20049;-75
2022/08/12 08:51:39;;;;;;;2.10;1.83;;;;;;;28.45;44.35;100161.81;5052620;28;20108;-77
2022/08/12 08:54:07;;;;;;;3.30;2.10;;;;;;;28.37;44.15;100158.34;5052638;28;20052;-75
2022/08/12 08:56:41;;;;;;;2.35;2.08;;;;;;;27.96;44.92;100153.09;5052365;28;20025;-77
2022/08/12 08:59:06;;;;;;;2.25;2.00;;;;;;;27.23;46.21;100160.19;5052657;28;20021;-77
2022/08/12 09:01:32;;;;;;;2.60;2.05;;;;;;;27.18;46.77;100159.84;5051831;28;20036;-77
2022/08/12 09:03:57;;;;;;;3.45;1.90;;;;;;;27.21;46.43;100147.97;5052653;28;20040;-77
2022/08/12 09:06:22;;;;;;;2.42;2.10;;;;;;;27.49;46.61;100151.97;5052357;28;20052;-77
2022/08/12 09:08:48;;;;;;;2.38;1.92;;;;;;;27.81;46.75;100160.97;5052630;28;20025;-77
2022/08/12 09:13:58;;;;;;;2.45;2.10;;;;;;;27.63;45.44;100157.63;5052353;28;20036;-77
2022/08/12 09:16:23;;;;;;;4.22;2.05;;;;;;;27.44;45.97;100161.50;5051891;28;20025;-78
2022/08/12 09:18:49;;;;;;;3.72;2.28;;;;;;;27.26;46.22;100175.03;5052448;28;20025;-77
2022/08/12 09:21:14;;;;;;;2.20;2.00;;;;;;;27.09;46.17;100163.47;5052380;28;20037;-77
2022/08/12 09:23:41;;;;;;;4.50;2.45;;;;;;;26.92;47.14;100167.13;5052008;28;20434;-77
2022/08/12 09:26:08;;;;;;;3.75;2.08;;;;;;;26.68;47.92;100162.56;5034484;28;20392;-77
2022/08/12 09:28:34;;;;;;;2.40;2.20;;;;;;;26.42;48.34;100149.25;5051810;28;20029;-77
2022/08/12 09:31:00;;;;;;;5.00;2.20;;;;;;;26.21;48.81;100169.22;5051910;28;20029;-77
2022/08/12 09:33:32;;;;;;;5.38;1.98;;;;;;;26.25;49.26;100165.22;5051874;28;20052;-77
2022/08/12 09:35:58;;;;;;;4.43;2.22;;;;;;;26.21;49.54;100155.88;5052042;28;20430;-77
2022/08/12 09:38:23;;;;;;;2.78;2.15;;;;;;;26.29;49.81;100160.38;5051812;28;20025;-78
2022/08/12 09:40:49;;;;;;;2.35;2.15;;;;;;;26.45;49.34;100162.31;5052014;28;20112;-77
2022/08/12 09:46:02;;;;;;;2.55;2.30;;;;;;;26.23;50.00;100169.88;5051913;28;20099;-77
2022/08/12 09:48:28;;;;;;;2.63;2.35;;;;;;;26.30;49.82;100167.41;5051745;28;20021;-77
2022/08/12 09:50:54;;;;;;;3.03;2.25;;;;;;;26.36;49.47;100150.72;5051768;28;20491;-77
2022/08/12 09:53:24;;;;;;;3.10;2.45;;;;;;;26.51;49.64;100151.84;5051365;28;20028;-77
2022/08/12 09:55:54;;;;;;;;;;;;;;;26.53;49.92;100155.16;5051937;28;20396;-77
2022/08/12 09:58:28;;;;;;;2.47;2.28;;;;;;;26.42;49.95;100152.78;5051648;28;19920;-78
2022/08/12 10:01:03;;;;;;;3.00;2.53;;;;;;;26.49;49.61;100151.13;5051769;28;20039;-77
2022/08/12 10:03:30;;;;;;;2.70;2.50;;;;;;;26.51;49.38;100122.44;5051505;28;20029;-77
2022/08/12 10:05:56;;;;;;;9.85;2.55;;;;;;;26.69;49.26;100118.81;5051787;28;20056;-77
2022/08/12 10:08:26;;;;;;;3.85;2.85;;;;;;;26.59;49.83;100116.28;5051251;28;20021;-77
2022/08/12 10:13:43;;;;;;;4.25;2.30;;;;;;;26.83;49.28;100110.97;5054058;28;20321;-76
2022/08/12 10:16:11;;;;;;;4.35;2.63;;;;;;;26.85;48.95;100129.53;5055642;28;20047;-77
2022/08/12 10:18:40;;;;;;;9.25;2.83;;;;;;;26.34;49.85;100129.53;5055452;28;20025;-77
2022/08/12 10:21:08;;;;;;;3.08;2.78;;;;;;;26.15;49.71;100128.97;5055511;28;20116;-77
2022/08/12 10:23:36;;;;;;;7.40;2.97;;;;;;;26.14;50.63;100120.13;5055133;28;20025;-77
2022/08/12 10:31:30;;;;;;;2.72;2.45;;;;;;;26.29;51.84;100120.31;5055018;28;20531;-77
2022/08/12 10:33:55;;;;;;;3.10;2.35;;;;;;;26.46;51.64;100119.41;5055424;28;20032;-78
2022/08/12 10:36:21;;;;;;;3.03;2.72;;;;;;;26.47;51.51;100110.41;5037349;28;20023;-78
2022/08/12 10:38:46;;;;;;;2.88;2.65;;;;;;;26.31;50.88;100099.66;5055041;28;20107;-78
2022/08/12 10:43:55;;;;;;;3.00;2.70;;;;;;;26.09;51.62;100109.09;5055083;28;20098;-78
2022/08/12 10:46:21;;;;;;;3.13;2.72;;;;;;;26.13;52.02;100105.09;5055540;28;20029;-77
2022/08/12 10:48:47;;;;;;;3.05;2.75;;;;;;;26.41;51.52;100102.19;5054933;28;20028;-75
2022/08/12 10:51:18;;;;;;;2.72;2.40;;;;;;;26.60;51.18;100094.75;5055181;28;20021;-78
2022/08/12 10:53:45;;;;;;;3.50;2.45;;;;;;;26.61;50.96;100091.06;5036807;28;20404;-78
2022/08/12 10:56:11;;;;;;;3.00;2.60;;;;;;;26.39;51.48;100107.69;5054945;28;20439;-77
2022/08/12 10:58:37;;;;;;;4.88;3.00;;;;;;;26.08;51.72;100099.38;5055148;28;20167;-78
2022/08/12 11:01:05;;;;;;;2.80;2.60;;;;;;;25.90;52.45;100107.47;5054969;28;20062;-76
2022/08/12 11:03:41;;;;;;;4.65;2.70;;;;;;;25.93;53.30;100095.66;5054696;28;20032;-76
2022/08/12 11:06:09;;;;;;;6.85;2.90;;;;;;;26.00;52.32;100100.22;5054260;28;20380;-78
2022/08/12 11:08:37;;;;;;;3.20;2.88;;;;;;;25.91;52.81;100090.47;5053620;28;20033;-76
2022/08/12 11:11:08;;;;;;;2.63;2.42;;;;;;;26.12;52.44;100085.59;5053338;28;20029;-76
2022/08/12 11:13:34;;;;;;;5.88;2.72;;;;;;;26.54;51.16;100078.53;5053365;28;20108;-76
2022/08/12 11:16:00;;;;;;;3.95;2.40;;;;;;;26.77;51.58;100079.56;5053379;28;20111;-76
2022/08/12 11:18:27;;;;;;;2.53;2.33;;;;;;;26.75;51.23;100075.38;5053283;28;20166;-76
2022/08/12 11:20:53;;;;;;;2.63;2.42;;;;;;;26.80;50.96;100071.25;5053363;28;20021;-77
2022/08/12 11:23:19;;;;;;;3.88;2.17;;;;;;;26.93;50.51;100086.78;5052754;28;20025;-78
2022/08/12 11:25:45;;;;;;;4.35;2.80;;;;;;;26.80;51.37;100062.34;5052925;28;20036;-78
2022/08/12 11:28:11;;;;;;;3.03;2.60;;;;;;;26.64;50.95;100075.72;5053310;28;20029;-78
2022/08/12 11:30:37;;;;;;;2.80;2.40;;;;;;;26.29;50.56;100080.28;5053017;28;20107;-78
2022/08/12 11:33:02;;;;;;;7.07;2.83;;;;;;;26.54;50.76;100079.34;5053220;28;20064;-77
2022/08/12 11:35:27;;;;;;;7.03;2.85;;;;;;;26.83;50.27;100064.72;5052811;28;20032;-77
2022/08/12 11:37:53;;;;;;;3.08;2.83;;;;;;;26.87;50.46;100090.09;5052888;28;20021;-77
2022/08/12 11:40:18;;;;;;;3.15;2.85;;;;;;;26.80;50.51;100076.59;5053431;28;20443;-78
2022/08/12 11:42:44;;;;;;;3.45;2.85;;;;;;;26.47;50.09;100072.19;5053287;28;20025;-78
2022/08/12 11:45:10;;;;;;;5.18;2.40;;;;;;;26.40;51.54;100060.44;5053043;28;20393;-78
2022/08/12 11:47:35;;;;;;;5.00;2.60;;;;;;;26.65;50.87;100054.19;5052731;28;20108;-78
2022/08/12 11:50:01;;;;;;;2.97;2.67;;;;;;;26.78;50.10;100043.81;5052893;28;20460;-78
2022/08/12 11:52:26;;;;;;;5.20;2.80;;;;;;;27.05;49.69;100040.00;5052629;28;20024;-78
2022/08/12 11:54:51;;;;;;;2.80;2.60;;;;;;;27.02;49.46;100047.50;5052376;28;20036;-78
2022/08/12 11:57:17;;;;;;;2.90;2.40;;;;;;;27.13;49.60;100049.03;5052887;28;20024;-78
2022/08/12 11:59:42;;;;;;;2.78;1.90;;;;;;;27.35;49.48;100051.84;5052623;28;20031;-78
2022/08/12 12:02:08;;;;;;;2.70;2.50;;;;;;;27.42;49.14;100060.00;5052694;28;20025;-77
2022/08/12 12:04:33;;;;;;;3.40;2.83;;;;;;;27.10;49.58;100061.75;5052424;28;20546;-78
2022/08/12 12:06:58;;;;;;;2.80;2.60;;;;;;;26.82;50.39;100063.88;5006403;28;1341073;-78
2022/08/12 12:09:25;;;;;;;3.03;2.50;;;;;;;26.67;50.17;100046.81;5054016;28;20112;-78
2022/08/12 12:11:50;;;;;;;2.60;2.40;;;;;;;26.76;50.02;100047.69;5053778;28;20483;-78
2022/08/12 12:14:16;;;;;;;4.93;2.72;;;;;;;26.86;49.89;100046.50;5053639;28;20029;-77
2022/08/12 12:16:41;;;;;;;2.60;2.40;;;;;;;26.73;50.20;100048.00;5053227;28;20021;-78
2022/08/12 12:19:09;;;;;;;4.50;2.60;;;;;;;26.49;49.91;100032.78;5053379;28;20116;-78
2022/08/12 12:21:35;;;;;;;2.78;2.50;;;;;;;26.69;50.71;100031.47;5053310;28;20488;-78
2022/08/12 12:24:01;;;;;;;5.35;2.60;;;;;;;26.84;50.10;100035.16;5053080;28;20071;-78
2022/08/12 12:26:26;;;;;;;4.85;2.35;;;;;;;26.93;49.88;100036.00;5053289;28;20485;-78
2022/08/12 12:28:51;;;;;;;3.95;2.53;;;;;;;26.93;50.18;100045.84;5053036;28;20040;-78
2022/08/12 12:31:17;;;;;;;3.95;2.97;;;;;;;26.61;50.44;100032.28;5053424;28;20021;-78
2022/08/12 12:33:42;;;;;;;6.63;2.63;;;;;;;26.51;49.77;100039.63;5052838;28;20052;-78
2022/08/12 12:36:08;;;;;;;3.28;2.80;;;;;;;26.52;50.27;100033.28;5051959;28;20021;-78
2022/08/12 12:38:33;;;;;;;4.28;2.72;;;;;;;26.76;49.87;100021.78;5052714;28;20028;-78
2022/08/12 12:40:59;;;;;;;4.32;2.92;;;;;;;26.98;49.09;100039.00;5053180;28;20025;-77
2022/08/12 12:43:25;;;;;;;2.90;2.30;;;;;;;26.89;49.11;100025.81;5053015;28;20028;-78
2022/08/12 12:45:50;;;;;;;2.63;2.42;;;;;;;26.93;48.68;100022.63;5052320;28;20033;-78
2022/08/12 12:48:17;;;;;;;2.65;2.45;;;;;;;26.88;48.68;100024.94;5042375;28;20526;-78
2022/08/12 12:51:14;;;;;;;4.05;2.35;;;;;;;26.97;49.40;100036.47;5039912;28;20175;-78
2022/08/12 12:53:34;;;;;;;3.33;2.90;;;;;;;26.96;49.27;100032.97;5041541;28;20125;-78
2022/08/12 12:56:00;;;;;;;4.45;3.08;;;;;;;26.89;48.47;100031.16;5041868;28;20025;-77
2022/08/12 12:58:26;;;;;;;5.50;2.75;;;;;;;26.89;48.86;100026.63;5040207;28;20036;-78
2022/08/12 13:00:54;;;;;;;3.08;2.47;;;;;;;27.04;48.32;100034.81;5034583;28;20033;-77
2022/08/12 13:03:20;;;;;;;2.97;2.67;;;;;;;26.97;48.52;100025.78;5032607;28;20036;-78
2022/08/12 13:05:46;;;;;;;3.25;2.60;;;;;;;27.06;48.56;100028.28;5049545;28;20045;-77
2022/08/12 13:08:26;;;;;;;2.72;2.53;;;;;;;27.22;48.39;100024.81;5052607;28;20047;-78
2022/08/12 13:10:53;;;;;;;4.07;2.67;;;;;;;27.24;48.44;100033.47;5052508;28;20040;-78
2022/08/12 13:13:20;;;;;;;5.75;3.00;;;;;;;27.03;47.52;100022.44;5050207;28;20028;-77
2022/08/12 13:15:48;;;;;;;2.88;2.63;;;;;;;27.05;47.98;100031.13;5041663;28;20127;-77
2022/08/12 13:18:19;;;;;;;2.65;2.45;;;;;;;27.00;48.29;100022.78;5050825;28;20052;-78
2022/08/12 13:20:46;;;;;;;5.03;3.10;;;;;;;27.14;48.64;100023.94;5051876;28;20070;-77
2022/08/12 13:23:15;;;;;;;4.32;2.80;;;;;;;27.32;48.66;100016.59;5051288;28;20154;-78
2022/08/12 13:25:40;;;;;;;6.88;4.68;;;;;;;27.32;48.06;100019.25;5052130;28;20120;-78
2022/08/12 13:28:07;;;;;;;2.70;2.50;;;;;;;27.18;48.39;100018.13;5052264;28;20115;-78